createdAt,value
2022-12-08T00:00:26.803Z,115.22
2022-12-08T00:01:48.095Z,114.38
2022-12-08T00:03:00.557Z,140.80
2022-12-08T00:04:20.775Z,117.15
2022-12-08T00:05:43.144Z,113.88
2022-12-08T00:07:04.120Z,113.43
2022-12-08T00:08:26.792Z,110.55
2022-12-08T00:09:47.524Z,111.05
2022-12-08T00:11:02.848Z,113.28
2022-12-08T00:12:24.569Z,118.82
2022-12-08T00:13:35.195Z,103.47
2022-12-08T00:14:49.793Z,103.30
2022-12-08T00:15:59.572Z,98.45
2022-12-08T00:17:23.581Z,90.43
2022-12-08T00:18:26.607Z,111.05
2022-12-08T00:19:39.371Z,110.57
2022-12-08T00:20:54.936Z,85.75
2022-12-08T00:22:22.447Z,89.22
2022-12-08T00:23:31.425Z,97.43
2022-12-08T00:24:47.184Z,94.70
2022-12-08T00:25:55.090Z,131.95
2022-12-08T00:27:02.036Z,110.63
2022-12-08T00:28:15.274Z,92.28
2022-12-08T00:29:33.694Z,112.07
2022-12-08T00:30:49.979Z,100.78
2022-12-08T00:32:09.002Z,81.72
2022-12-08T00:33:19.425Z,108.43
2022-12-08T00:34:30.721Z,97.40
2022-12-08T00:35:43.386Z,98.65
2022-12-08T00:37:13.762Z,88.93
2022-12-08T00:38:29.946Z,111.57
2022-12-08T00:40:04.504Z,118.15
2022-12-08T00:41:14.447Z,111.13
2022-12-08T00:43:58.582Z,115.18
2022-12-08T00:45:13.751Z,85.43
2022-12-08T00:46:21.541Z,84.60
2022-12-08T00:47:35.764Z,80.32
2022-12-08T00:48:40.545Z,90.78
2022-12-08T00:50:10.126Z,85.38
2022-12-08T00:51:31.139Z,95.90
2022-12-08T00:52:41.625Z,91.53
2022-12-08T00:54:01.451Z,82.97
2022-12-08T00:55:22.661Z,104.72
2022-12-08T00:56:40.876Z,123.95
2022-12-08T00:57:53.560Z,93.95
2022-12-08T00:59:12.738Z,131.93
2022-12-08T01:00:25.622Z,98.80
2022-12-08T01:01:42.275Z,231.35
2022-12-08T01:03:02.123Z,121.78
2022-12-08T01:04:24.420Z,118.80
2022-12-08T01:05:36.168Z,123.22
2022-12-08T01:06:43.321Z,114.18
2022-12-08T01:07:59.195Z,117.63
2022-12-08T01:09:14.819Z,125.18
2022-12-08T01:10:24.904Z,115.75
2022-12-08T01:14:10.696Z,123.38
2022-12-08T01:15:30.304Z,154.02
2022-12-08T01:16:45.742Z,149.05
2022-12-08T01:17:53.227Z,146.63
2022-12-08T01:18:59.902Z,121.80
2022-12-08T01:20:14.305Z,126.25
2022-12-08T01:21:25.308Z,109.97
2022-12-08T01:22:43.271Z,150.48
2022-12-08T01:24:04.080Z,133.88
2022-12-08T01:25:25.131Z,125.78
2022-12-08T01:26:34.119Z,144.38
2022-12-08T01:27:48.651Z,133.65
2022-12-08T01:29:07.740Z,154.20
2022-12-08T01:30:20.273Z,124.15
2022-12-08T01:31:45.014Z,122.50
2022-12-08T01:33:03.586Z,120.68
2022-12-08T01:34:15.618Z,143.20
2022-12-08T01:35:29.540Z,126.88
2022-12-08T01:36:51.349Z,166.65
2022-12-08T01:37:56.614Z,136.30
2022-12-08T01:39:16.627Z,127.80
2022-12-08T01:40:30.047Z,136.98
2022-12-08T01:42:01.395Z,173.25
2022-12-08T01:43:20.339Z,156.80
2022-12-08T01:45:12.708Z,150.80
2022-12-08T01:46:27.733Z,133.63
2022-12-08T01:47:42.052Z,131.68
2022-12-08T01:48:54.997Z,130.52
2022-12-08T01:50:06.711Z,152.65
2022-12-08T01:51:14.160Z,142.57
2022-12-08T01:52:25.667Z,130.60
2022-12-08T01:53:39.425Z,144.40
2022-12-08T01:54:56.003Z,114.38
2022-12-08T01:56:10.297Z,138.05
2022-12-08T01:57:19.100Z,136.27
2022-12-08T01:58:32.098Z,136.75
2022-12-08T01:59:42.237Z,111.38
2022-12-08T02:00:51.343Z,148.88
2022-12-08T02:02:03.149Z,125.68
2022-12-08T02:03:17.439Z,131.73
2022-12-08T02:04:21.241Z,132.15
2022-12-08T02:05:34.258Z,113.45
2022-12-08T02:06:41.608Z,202.23
2022-12-08T02:07:50.563Z,171.52
2022-12-08T02:09:01.434Z,160.02
2022-12-08T02:10:11.556Z,154.13
2022-12-08T02:11:22.584Z,147.00
2022-12-08T02:12:28.016Z,156.27
2022-12-08T02:13:48.232Z,197.02
2022-12-08T02:15:08.388Z,142.20
2022-12-08T02:16:29.652Z,164.98
2022-12-08T02:18:06.380Z,158.73
2022-12-08T02:19:54.883Z,131.07
2022-12-08T02:21:15.149Z,117.65
2022-12-08T02:22:33.777Z,133.70
2022-12-08T02:23:52.877Z,171.60
2022-12-08T02:25:03.951Z,157.45
2022-12-08T02:26:44.914Z,126.18
2022-12-08T02:28:08.514Z,192.32
2022-12-08T02:29:38.305Z,116.43
2022-12-08T02:30:56.820Z,96.47
2022-12-08T02:32:36.911Z,152.50
2022-12-08T02:34:16.119Z,169.02
2022-12-08T02:35:27.955Z,214.55
2022-12-08T02:36:45.836Z,158.27
2022-12-08T02:38:00.842Z,136.32
2022-12-08T02:39:16.125Z,136.15
2022-12-08T02:40:44.289Z,223.55
2022-12-08T02:42:08.540Z,221.52
2022-12-08T02:43:20.457Z,137.18
2022-12-08T02:44:32.708Z,146.18
2022-12-08T02:45:56.380Z,210.15
2022-12-08T02:47:12.674Z,224.70
2022-12-08T02:48:26.768Z,131.52
2022-12-08T02:49:38.940Z,151.10
2022-12-08T02:50:52.687Z,187.90
2022-12-08T02:52:24.558Z,226.02
2022-12-08T02:53:41.205Z,167.98
2022-12-08T02:54:57.955Z,186.32
2022-12-08T02:56:24.227Z,149.68
2022-12-08T02:57:56.246Z,137.40
2022-12-08T02:59:40.218Z,129.13
2022-12-08T03:01:15.192Z,148.80
2022-12-08T03:02:51.403Z,185.60
2022-12-08T03:04:15.479Z,143.98
2022-12-08T03:05:51.257Z,128.35
2022-12-08T03:07:16.721Z,149.32
2022-12-08T03:08:35.952Z,144.23
2022-12-08T03:09:50.760Z,131.10
2022-12-08T03:11:12.122Z,146.30
2022-12-08T03:12:24.389Z,139.40
2022-12-08T03:13:35.303Z,130.07
2022-12-08T03:14:50.091Z,146.43
2022-12-08T03:16:02.773Z,128.40
2022-12-08T03:17:11.303Z,168.07
2022-12-08T03:18:20.642Z,161.57
2022-12-08T03:19:54.413Z,174.82
2022-12-08T03:21:09.381Z,197.35
2022-12-08T03:22:39.157Z,130.18
2022-12-08T03:23:46.378Z,125.93
2022-12-08T03:24:57.512Z,110.68
2022-12-08T03:26:15.265Z,169.77
2022-12-08T03:27:29.767Z,116.57
2022-12-08T03:28:52.479Z,99.20
2022-12-08T03:30:05.756Z,106.97
2022-12-08T03:31:20.191Z,105.45
2022-12-08T03:32:34.082Z,158.23
2022-12-08T03:33:52.601Z,115.75
2022-12-08T03:35:00.298Z,133.20
2022-12-08T03:36:14.009Z,126.78
2022-12-08T03:37:28.302Z,124.65
2022-12-08T03:38:43.504Z,98.78
2022-12-08T03:40:02.507Z,141.93
2022-12-08T03:41:26.271Z,206.82
2022-12-08T03:42:39.775Z,135.15
2022-12-08T03:44:04.898Z,124.75
2022-12-08T03:45:19.239Z,109.22
2022-12-08T03:47:42.566Z,191.15
2022-12-08T03:48:51.352Z,201.57
2022-12-08T03:50:09.260Z,165.10
2022-12-08T03:51:19.912Z,202.82
2022-12-08T03:52:41.758Z,158.63
2022-12-08T03:55:21.492Z,125.55
2022-12-08T03:58:03.154Z,124.43
2022-12-08T03:59:15.582Z,135.85
2022-12-08T04:00:38.599Z,135.63
2022-12-08T04:01:48.937Z,131.05
2022-12-08T04:03:02.281Z,162.07
2022-12-08T04:04:12.797Z,137.25
2022-12-08T04:05:25.199Z,120.00
2022-12-08T04:06:50.451Z,147.30
2022-12-08T04:08:06.518Z,146.25
2022-12-08T04:09:18.394Z,141.27
2022-12-08T04:10:42.246Z,131.93
2022-12-08T04:11:50.476Z,154.23
2022-12-08T04:13:03.617Z,176.48
2022-12-08T04:14:16.736Z,162.43
2022-12-08T04:15:35.426Z,160.70
2022-12-08T04:16:52.248Z,143.98
2022-12-08T04:18:04.508Z,136.40
2022-12-08T04:19:20.920Z,167.48
2022-12-08T04:20:31.715Z,142.30
2022-12-08T04:21:53.852Z,160.13
2022-12-08T04:23:06.272Z,151.80
2022-12-08T04:24:19.576Z,165.63
2022-12-08T04:25:35.086Z,168.18
2022-12-08T04:26:47.693Z,192.18
2022-12-08T04:27:56.539Z,188.60
2022-12-08T04:29:05.572Z,182.60
2022-12-08T04:30:23.155Z,173.30
2022-12-08T04:31:59.379Z,177.30
2022-12-08T04:33:20.429Z,167.32
2022-12-08T04:34:43.956Z,256.90
2022-12-08T04:35:59.332Z,192.88
2022-12-08T04:37:18.705Z,199.15
2022-12-08T04:38:33.314Z,246.05
2022-12-08T04:39:44.632Z,136.30
2022-12-08T04:40:57.849Z,228.88
2022-12-08T04:42:07.917Z,145.70
2022-12-08T04:43:18.203Z,170.90
2022-12-08T04:44:29.730Z,219.98
2022-12-08T04:47:04.084Z,149.18
2022-12-08T04:48:19.125Z,143.90
2022-12-08T04:49:26.918Z,137.55
2022-12-08T04:50:47.092Z,156.88
2022-12-08T04:51:55.562Z,204.77
2022-12-08T04:53:11.433Z,141.88
2022-12-08T04:54:31.648Z,137.90
2022-12-08T04:55:53.275Z,124.50
2022-12-08T04:57:00.608Z,158.60
2022-12-08T04:58:13.357Z,142.32
2022-12-08T04:59:26.543Z,138.02
2022-12-08T05:00:57.718Z,130.55
2022-12-08T05:02:20.228Z,131.05
2022-12-08T05:03:37.542Z,145.48
2022-12-08T05:04:51.269Z,123.90
2022-12-08T05:06:04.002Z,107.72
2022-12-08T05:07:12.022Z,124.95
2022-12-08T05:08:20.547Z,118.38
2022-12-08T05:09:31.612Z,105.95
2022-12-08T05:10:56.887Z,119.20
2022-12-08T05:12:16.991Z,97.60
2022-12-08T05:13:34.112Z,108.43
2022-12-08T05:14:54.237Z,109.97
2022-12-08T05:16:09.849Z,112.00
2022-12-08T05:17:32.778Z,101.35
2022-12-08T05:18:35.970Z,97.97
2022-12-08T05:19:45.591Z,105.13
2022-12-08T05:21:05.319Z,101.28
2022-12-08T05:22:32.648Z,112.45
2022-12-08T05:54:00.103Z,109.95
2022-12-08T05:55:12.662Z,93.57
2022-12-08T05:56:33.991Z,94.93
2022-12-08T05:57:48.503Z,124.45
2022-12-08T05:58:55.115Z,119.43
2022-12-08T06:00:04.942Z,116.40
2022-12-08T06:01:23.983Z,101.93
2022-12-08T06:02:32.139Z,105.97
2022-12-08T06:03:57.712Z,106.40
2022-12-08T06:05:15.003Z,116.25
2022-12-08T06:06:42.804Z,92.47
2022-12-08T06:08:05.565Z,103.60
2022-12-08T06:09:39.407Z,98.40
2022-12-08T06:10:51.815Z,112.10
2022-12-08T06:12:43.194Z,121.35
2022-12-08T06:14:15.495Z,117.57
2022-12-08T06:15:46.223Z,101.05
2022-12-08T06:17:02.063Z,106.28
2022-12-08T06:18:32.718Z,91.88
2022-12-08T06:19:50.126Z,96.93
2022-12-08T06:21:14.315Z,112.93
2022-12-08T06:22:30.972Z,91.88
2022-12-08T06:23:38.956Z,105.45
2022-12-08T06:24:52.424Z,104.10
2022-12-08T06:26:23.416Z,110.70
2022-12-08T06:27:41.313Z,90.55
2022-12-08T06:29:18.268Z,108.00
2022-12-08T06:30:39.049Z,102.20
2022-12-08T06:31:55.003Z,117.30
2022-12-08T06:33:13.759Z,107.28
2022-12-08T06:34:43.347Z,99.60
2022-12-08T06:35:51.953Z,84.32
2022-12-08T06:37:08.743Z,118.82
2022-12-08T06:38:20.731Z,88.10
2022-12-08T06:39:38.683Z,105.72
2022-12-08T06:41:03.365Z,100.32
2022-12-08T06:42:32.202Z,98.72
2022-12-08T06:43:53.431Z,136.55
2022-12-08T06:45:09.785Z,126.15
2022-12-08T06:46:29.651Z,105.10
2022-12-08T06:47:40.269Z,93.35
2022-12-08T06:48:57.214Z,108.50
2022-12-08T06:50:22.717Z,158.88
2022-12-08T06:51:30.582Z,122.70
2022-12-08T06:52:49.377Z,109.93
2022-12-08T06:54:14.034Z,108.50
2022-12-08T06:55:57.272Z,97.97
2022-12-08T06:57:00.415Z,103.55
2022-12-08T06:58:22.038Z,123.78
2022-12-08T06:59:47.860Z,120.80
2022-12-08T07:01:09.869Z,196.23
2022-12-08T07:02:44.484Z,132.80
2022-12-08T07:03:53.409Z,175.55
2022-12-08T07:05:04.844Z,154.27
2022-12-08T07:06:18.418Z,141.80
2022-12-08T07:07:23.803Z,120.75
2022-12-08T07:08:41.173Z,126.22
2022-12-08T07:09:46.262Z,127.45
2022-12-08T07:10:53.432Z,114.57
2022-12-08T07:12:02.477Z,147.35
2022-12-08T07:13:04.966Z,126.43
2022-12-08T07:14:11.072Z,117.55
2022-12-08T07:15:13.708Z,102.68
2022-12-08T07:16:18.878Z,107.68
2022-12-08T07:17:21.257Z,111.95
2022-12-08T07:18:31.942Z,106.45
2022-12-08T07:19:34.383Z,100.15
2022-12-08T07:20:43.298Z,116.18
2022-12-08T07:21:48.347Z,108.32
2022-12-08T07:22:51.276Z,103.93
2022-12-08T07:24:10.523Z,111.65
2022-12-08T07:25:21.920Z,94.70
2022-12-08T07:26:31.017Z,88.72
2022-12-08T07:27:39.034Z,70.22
2022-12-08T07:28:48.541Z,84.03
2022-12-08T07:29:54.064Z,105.82
2022-12-08T07:31:15.189Z,109.28
2022-12-08T07:32:17.428Z,125.78
2022-12-08T07:33:22.367Z,110.70
2022-12-08T07:34:29.635Z,110.88
2022-12-08T07:35:35.322Z,97.40
2022-12-08T07:36:37.844Z,102.57
2022-12-08T07:37:42.642Z,111.32
2022-12-08T07:38:44.931Z,117.45
2022-12-08T07:39:49.962Z,92.43
2022-12-08T07:40:53.113Z,108.60
2022-12-08T07:41:58.296Z,139.40
2022-12-08T07:43:03.443Z,120.40
2022-12-08T07:44:08.531Z,106.88
2022-12-08T07:45:11.150Z,79.63
2022-12-08T07:46:18.311Z,90.45
2022-12-08T07:47:28.282Z,108.28
2022-12-08T07:48:33.857Z,84.97
2022-12-08T07:49:36.454Z,80.65
2022-12-08T07:50:42.151Z,83.55
2022-12-08T07:51:51.790Z,83.15
2022-12-08T07:53:09.462Z,85.95
2022-12-08T07:54:18.392Z,94.47
2022-12-08T07:55:20.650Z,93.43
2022-12-08T07:56:26.877Z,97.15
2022-12-08T07:57:29.238Z,148.65
2022-12-08T07:58:39.492Z,121.22
2022-12-08T07:59:41.768Z,126.15
2022-12-08T08:00:46.856Z,139.90
2022-12-08T08:02:13.421Z,144.32
2022-12-08T08:03:21.101Z,121.80
2022-12-08T08:04:28.817Z,118.32
2022-12-08T08:05:31.238Z,136.55
2022-12-08T08:06:41.254Z,133.82
2022-12-08T08:07:44.016Z,149.25
2022-12-08T08:08:49.384Z,205.50
2022-12-08T08:09:54.265Z,238.23
2022-12-08T08:10:59.131Z,198.77
2022-12-08T08:12:29.487Z,175.13
2022-12-08T08:13:28.890Z,211.93
2022-12-08T08:14:36.351Z,185.77
2022-12-08T08:15:41.506Z,157.60
2022-12-08T08:16:49.328Z,184.27
2022-12-08T08:17:55.358Z,179.93
2022-12-08T08:18:57.701Z,181.82
2022-12-08T08:20:03.658Z,185.05
2022-12-08T08:21:36.593Z,180.88
2022-12-08T08:22:34.243Z,151.20
2022-12-08T08:23:36.638Z,141.05
2022-12-08T08:24:44.833Z,161.90
2022-12-08T08:25:50.182Z,155.25
2022-12-08T08:26:55.601Z,154.63
2022-12-08T08:28:01.754Z,158.93
2022-12-08T08:29:04.059Z,171.55
2022-12-08T08:30:19.881Z,174.13
2022-12-08T08:31:27.599Z,162.90
2022-12-08T08:32:36.196Z,210.80
2022-12-08T08:33:41.051Z,184.23
2022-12-08T08:34:43.234Z,148.25
2022-12-08T08:35:48.508Z,156.63
2022-12-08T08:36:53.375Z,168.77
2022-12-08T08:37:55.680Z,211.55
2022-12-08T08:39:00.514Z,197.32
2022-12-08T08:40:05.608Z,167.93
2022-12-08T08:41:12.028Z,206.02
2022-12-08T08:42:16.803Z,154.18
2022-12-08T08:43:37.748Z,146.95
2022-12-08T08:44:42.718Z,142.73
2022-12-08T08:45:50.116Z,134.77
2022-12-08T08:46:55.258Z,132.25
2022-12-08T08:48:00.201Z,155.25
2022-12-08T08:49:04.964Z,130.20
2022-12-08T08:50:08.302Z,89.82
2022-12-08T08:51:16.078Z,75.00
2022-12-08T08:52:18.123Z,79.68
2022-12-08T08:53:22.931Z,65.65
2022-12-08T08:54:25.052Z,72.32
2022-12-08T08:55:29.859Z,71.88
2022-12-08T08:56:34.590Z,63.20
2022-12-08T08:57:36.968Z,65.35
2022-12-08T08:58:41.935Z,64.68
2022-12-08T08:59:46.871Z,67.63
2022-12-08T09:00:51.558Z,72.40
2022-12-08T09:01:56.508Z,86.63
2022-12-08T09:02:58.646Z,103.05
2022-12-08T09:04:03.597Z,86.47
2022-12-08T09:05:07.227Z,97.05
2022-12-08T09:06:12.017Z,87.80
2022-12-08T09:07:17.439Z,117.68
2022-12-08T09:08:19.718Z,91.90
2022-12-08T09:09:24.641Z,86.45
2022-12-08T09:10:30.269Z,87.18
2022-12-08T09:11:32.831Z,89.60
2022-12-08T09:12:37.751Z,134.98
2022-12-08T09:13:40.098Z,106.57
2022-12-08T09:14:45.971Z,114.43
2022-12-08T09:15:50.942Z,114.57
2022-12-08T09:16:58.272Z,101.07
2022-12-08T09:18:02.986Z,128.18
2022-12-08T09:19:07.684Z,106.75
2022-12-08T09:20:12.844Z,119.47
2022-12-08T09:21:22.623Z,98.65
2022-12-08T09:22:27.567Z,112.13
2022-12-08T09:23:35.219Z,89.00
2022-12-08T09:24:40.420Z,78.68
2022-12-08T09:25:44.618Z,86.68
2022-12-08T09:26:49.567Z,101.53
2022-12-08T09:27:54.230Z,162.02
2022-12-08T09:28:57.501Z,261.67
2022-12-08T09:30:02.451Z,305.42
2022-12-08T09:31:05.324Z,253.93
2022-12-08T09:32:13.249Z,311.52
2022-12-08T09:33:17.934Z,261.58
2022-12-08T09:34:22.659Z,205.85
2022-12-08T09:35:24.761Z,246.88
2022-12-08T09:36:29.542Z,217.45
2022-12-08T09:37:31.600Z,460.25
2022-12-08T09:38:36.381Z,225.45
2022-12-08T09:39:38.546Z,465.65
2022-12-08T09:40:51.914Z,208.57
2022-12-08T09:42:02.348Z,154.05
2022-12-08T09:43:14.799Z,265.98
2022-12-08T09:44:46.123Z,156.82
2022-12-08T09:45:51.874Z,210.30
2022-12-08T09:46:56.246Z,183.10
2022-12-08T09:48:09.598Z,370.05
2022-12-08T09:49:18.533Z,232.65
2022-12-08T09:50:33.905Z,120.53
2022-12-08T09:51:43.100Z,285.08
2022-12-08T09:52:55.860Z,368.48
2022-12-08T09:54:07.795Z,255.77
2022-12-08T09:55:20.411Z,392.80
2022-12-08T09:56:27.146Z,125.93
2022-12-08T09:57:31.045Z,108.28
2022-12-08T09:58:47.789Z,124.75
2022-12-08T09:59:58.012Z,77.32
2022-12-08T10:01:03.348Z,109.07
2022-12-08T10:02:24.610Z,94.35
2022-12-08T10:03:42.006Z,77.15
2022-12-08T10:04:44.553Z,73.38
2022-12-08T10:05:57.779Z,116.43
2022-12-08T10:07:13.123Z,123.78
2022-12-08T10:08:24.085Z,86.75
2022-12-08T10:09:36.173Z,107.88
2022-12-08T10:10:45.650Z,91.60
2022-12-08T10:11:59.289Z,138.98
2022-12-08T10:13:10.048Z,732.22
2022-12-08T10:14:26.477Z,790.95
2022-12-08T10:15:47.175Z,92.15
2022-12-08T10:16:54.883Z,126.40
2022-12-08T10:18:04.015Z,112.43
2022-12-08T10:19:18.514Z,113.45
2022-12-08T10:20:26.463Z,94.45
2022-12-08T10:21:34.838Z,89.65
2022-12-08T10:22:42.885Z,92.70
2022-12-08T10:23:53.555Z,84.30
2022-12-08T10:25:04.943Z,34.03
2022-12-08T10:26:12.934Z,81.45
2022-12-08T10:27:17.710Z,86.15
2022-12-08T10:28:22.582Z,57.20
2022-12-08T10:29:27.655Z,43.13
2022-12-08T10:30:32.739Z,44.83
2022-12-08T10:31:37.716Z,47.42
2022-12-08T10:32:44.011Z,75.35
2022-12-08T10:33:51.090Z,66.10
2022-12-08T10:35:09.198Z,56.15
2022-12-08T10:36:14.629Z,103.05
2022-12-08T10:37:18.215Z,92.05
2022-12-08T10:38:26.448Z,78.95
2022-12-08T10:39:35.525Z,93.65
2022-12-08T10:40:45.465Z,85.22
2022-12-08T10:41:50.714Z,56.30
2022-12-08T10:42:56.947Z,56.25
2022-12-08T10:44:04.755Z,70.32
2022-12-08T10:45:27.765Z,102.63
2022-12-08T10:46:33.148Z,69.28
2022-12-08T10:47:37.936Z,98.85
2022-12-08T10:48:55.214Z,46.22
2022-12-08T10:50:17.800Z,113.05
2022-12-08T10:51:30.178Z,90.63
2022-12-08T10:52:35.247Z,65.90
2022-12-08T10:53:49.131Z,82.88
2022-12-08T10:54:53.006Z,70.85
2022-12-08T10:56:10.189Z,96.80
2022-12-08T10:57:25.605Z,88.07
2022-12-08T10:58:37.561Z,53.67
2022-12-08T10:59:45.556Z,59.33
2022-12-08T11:00:53.834Z,61.55
2022-12-08T11:02:00.780Z,64.63
2022-12-08T11:03:05.702Z,83.18
2022-12-08T11:04:20.656Z,89.75
2022-12-08T11:05:39.410Z,31.05
2022-12-08T11:07:01.740Z,71.07
2022-12-08T11:08:14.565Z,49.45
2022-12-08T11:09:46.068Z,71.93
2022-12-08T11:11:01.947Z,53.83
2022-12-08T11:12:18.645Z,74.57
2022-12-08T11:13:30.634Z,54.40
2022-12-08T11:14:36.941Z,68.07
2022-12-08T11:15:46.033Z,51.33
2022-12-08T11:16:58.013Z,62.03
2022-12-08T11:18:21.442Z,58.75
2022-12-08T11:19:39.268Z,91.18
2022-12-08T11:20:46.399Z,75.80
2022-12-08T11:21:56.857Z,83.35
2022-12-08T11:23:00.392Z,76.93
2022-12-08T11:24:36.123Z,79.90
2022-12-08T11:25:49.762Z,70.90
2022-12-08T11:27:12.807Z,98.47
2022-12-08T11:28:20.484Z,129.93
2022-12-08T11:29:30.154Z,79.35
2022-12-08T11:30:41.098Z,58.40
2022-12-08T11:31:55.122Z,92.72
2022-12-08T11:33:12.644Z,92.95
2022-12-08T11:34:33.913Z,112.68
2022-12-08T11:35:39.407Z,93.78
2022-12-08T11:37:00.697Z,76.30
2022-12-08T11:38:22.425Z,95.40
2022-12-08T11:40:43.570Z,79.63
2022-12-08T11:42:07.331Z,75.60
2022-12-08T11:43:17.379Z,65.10
2022-12-08T11:44:32.744Z,63.03
2022-12-08T11:45:40.406Z,96.95
2022-12-08T11:46:53.680Z,141.32
2022-12-08T11:48:11.406Z,69.68
2022-12-08T11:49:18.290Z,67.80
2022-12-08T11:50:35.021Z,76.55
2022-12-08T11:51:45.490Z,59.85
2022-12-08T11:53:07.666Z,40.47
2022-12-08T11:54:23.392Z,85.13
2022-12-08T11:55:50.342Z,44.88
2022-12-08T11:56:58.715Z,40.05
2022-12-08T11:58:14.415Z,62.00
2022-12-08T11:59:32.583Z,138.80
2022-12-08T12:00:40.071Z,81.90
2022-12-08T12:01:45.273Z,108.88
2022-12-08T12:03:07.055Z,78.55
2022-12-08T12:04:34.427Z,96.55
2022-12-08T12:07:50.285Z,76.43
2022-12-08T12:09:11.620Z,112.07
2022-12-08T12:10:43.522Z,39.88
2022-12-08T12:12:21.880Z,75.18
2022-12-08T12:14:17.070Z,53.72
2022-12-08T12:15:54.936Z,52.97
2022-12-08T12:17:53.530Z,31.38
2022-12-08T12:19:09.590Z,31.27
2022-12-08T12:20:31.872Z,51.30
2022-12-08T12:21:49.539Z,22.77
2022-12-08T12:23:18.045Z,37.75
2022-12-08T12:24:55.339Z,30.30
2022-12-08T12:26:28.074Z,28.65
2022-12-08T12:28:12.621Z,17.20
2022-12-08T12:29:41.735Z,23.33
2022-12-08T12:31:02.807Z,38.17
2022-12-08T12:32:21.302Z,19.83
2022-12-08T12:33:29.176Z,25.40
2022-12-08T12:34:39.292Z,41.95
2022-12-08T12:35:48.200Z,45.88
2022-12-08T12:37:07.053Z,36.58
2022-12-08T12:38:36.833Z,29.45
2022-12-08T12:40:06.631Z,14.20
2022-12-08T12:41:10.426Z,20.35
2022-12-08T12:42:43.485Z,32.97
2022-12-08T12:44:28.586Z,28.45
2022-12-08T12:45:34.990Z,44.88
2022-12-08T12:46:56.876Z,36.97
2022-12-08T12:49:49.018Z,49.60
2022-12-08T12:51:15.518Z,60.17
2022-12-08T12:52:49.456Z,52.15
2022-12-08T12:53:55.210Z,51.85
2022-12-08T12:55:29.191Z,68.38
2022-12-08T12:56:51.228Z,46.40
2022-12-08T12:58:00.370Z,85.93
2022-12-08T12:59:25.993Z,38.60
2022-12-08T13:00:28.787Z,54.20
2022-12-08T13:01:57.766Z,40.83
2022-12-08T13:03:03.037Z,61.35
2022-12-08T13:04:08.515Z,76.60
2022-12-08T13:05:21.072Z,50.97
2022-12-08T13:06:32.831Z,43.40
2022-12-08T13:07:45.266Z,81.85
2022-12-08T13:09:05.117Z,100.93
2022-12-08T13:10:20.239Z,58.20
2022-12-08T13:11:26.281Z,75.45
2022-12-08T13:12:31.525Z,99.28
2022-12-08T13:13:34.104Z,69.38
2022-12-08T13:14:41.910Z,51.45
2022-12-08T13:15:52.694Z,56.53
2022-12-08T13:16:58.540Z,62.58
2022-12-08T13:18:03.570Z,42.25
2022-12-08T13:19:16.134Z,57.63
2022-12-08T13:20:25.021Z,74.53
2022-12-08T13:21:33.953Z,58.58
2022-12-08T13:23:04.433Z,33.58
2022-12-08T13:24:30.295Z,40.92
2022-12-08T13:25:55.669Z,56.33
2022-12-08T13:27:39.071Z,41.42
2022-12-08T13:29:14.105Z,62.42
2022-12-08T13:30:50.213Z,33.40
2022-12-08T13:31:57.197Z,55.30
2022-12-08T13:33:18.470Z,41.72
2022-12-08T13:34:31.446Z,57.90
2022-12-08T13:35:33.947Z,28.15
2022-12-08T13:36:42.018Z,31.08
2022-12-08T13:37:55.265Z,39.00
2022-12-08T13:39:02.764Z,37.65
2022-12-08T13:40:12.260Z,37.63
2022-12-08T13:41:20.885Z,62.83
2022-12-08T13:42:32.945Z,47.83
2022-12-08T13:43:57.777Z,52.60
2022-12-08T13:47:32.871Z,20.85
2022-12-08T13:57:27.650Z,25.27
2022-12-08T13:58:35.884Z,20.67
2022-12-08T13:59:47.196Z,15.50
2022-12-08T14:01:07.798Z,14.00
2022-12-08T14:02:21.240Z,14.38
2022-12-08T14:03:23.807Z,13.82
2022-12-08T14:04:53.949Z,18.95
2022-12-08T14:06:12.926Z,12.32
2022-12-08T14:07:19.166Z,18.88
2022-12-08T14:08:57.472Z,19.65
2022-12-08T14:09:55.857Z,22.30
2022-12-08T14:11:02.605Z,19.42
2022-12-08T14:12:11.424Z,21.58
2022-12-08T14:13:15.212Z,32.35
2022-12-08T14:14:54.035Z,30.63
2022-12-08T14:15:47.864Z,33.90
2022-12-08T14:16:56.706Z,36.28
2022-12-08T14:18:04.236Z,51.67
2022-12-08T14:19:14.783Z,106.20
2022-12-08T14:20:25.515Z,70.85
2022-12-08T14:21:34.447Z,64.00
2022-12-08T14:22:43.570Z,56.93
2022-12-08T14:23:49.163Z,44.45
2022-12-08T14:24:55.971Z,61.10
2022-12-08T14:25:58.420Z,55.30
2022-12-08T14:27:06.025Z,48.22
2022-12-08T14:28:13.389Z,141.30
2022-12-08T14:29:38.199Z,78.00
2022-12-08T14:30:43.310Z,67.20
2022-12-08T14:31:45.718Z,55.28
2022-12-08T14:32:53.227Z,59.67
2022-12-08T14:34:00.885Z,78.43
2022-12-08T14:35:21.875Z,65.75
2022-12-08T14:36:28.945Z,50.55
2022-12-08T14:37:36.205Z,63.53
2022-12-08T14:38:38.605Z,37.33
2022-12-08T14:39:43.891Z,61.28
2022-12-08T14:40:50.346Z,61.63
2022-12-08T14:42:03.740Z,35.80
2022-12-08T14:43:17.535Z,59.42
2022-12-08T14:44:26.624Z,59.92
2022-12-08T14:45:29.326Z,72.60
2022-12-08T14:46:34.598Z,52.33
2022-12-08T14:47:37.049Z,62.33
2022-12-08T14:48:45.776Z,69.50
2022-12-08T14:49:50.686Z,50.50
2022-12-08T14:51:05.003Z,59.17
2022-12-08T14:52:13.924Z,66.75
2022-12-08T14:53:18.324Z,63.47
2022-12-08T14:54:24.464Z,59.25
2022-12-08T14:55:30.751Z,76.45
2022-12-08T14:56:39.857Z,75.07
2022-12-08T14:57:44.820Z,62.45
2022-12-08T14:58:48.467Z,80.47
2022-12-08T14:59:53.735Z,63.40
2022-12-08T15:00:58.612Z,63.25
2022-12-08T15:02:19.543Z,52.97
2022-12-08T15:03:26.284Z,70.28
2022-12-08T15:04:31.992Z,76.47
2022-12-08T15:05:39.706Z,83.95
2022-12-08T15:06:55.431Z,65.20
2022-12-08T15:08:02.841Z,61.42
2022-12-08T15:09:20.862Z,59.83
2022-12-08T15:10:32.100Z,71.72
2022-12-08T15:11:38.799Z,88.22
2022-12-08T15:12:41.876Z,59.65
2022-12-08T15:13:48.457Z,66.43
2022-12-08T15:15:02.523Z,68.97
2022-12-08T15:16:27.573Z,75.05
2022-12-08T15:17:37.383Z,66.85
2022-12-08T15:18:41.217Z,75.63
2022-12-08T15:19:57.921Z,63.13
2022-12-08T15:21:09.490Z,68.30
2022-12-08T15:22:20.935Z,100.95
2022-12-08T15:23:31.406Z,94.93
2022-12-08T15:24:36.435Z,54.70
2022-12-08T15:25:41.425Z,57.13
2022-12-08T15:26:48.735Z,60.03
2022-12-08T15:27:53.259Z,73.72
2022-12-08T15:28:59.140Z,71.80
2022-12-08T15:30:04.349Z,68.63
2022-12-08T15:31:09.789Z,66.43
2022-12-08T15:32:14.802Z,70.65
2022-12-08T15:33:19.918Z,87.93
2022-12-08T15:34:25.243Z,80.93
2022-12-08T15:35:33.661Z,65.18
2022-12-08T15:36:43.458Z,53.80
2022-12-08T15:37:49.530Z,73.03
2022-12-08T15:38:54.466Z,81.28
2022-12-08T15:39:59.587Z,65.55
2022-12-08T15:41:04.611Z,80.70
2022-12-08T15:42:14.753Z,75.00
2022-12-08T15:43:17.072Z,68.72
2022-12-08T15:44:21.985Z,99.15
2022-12-08T15:45:30.843Z,79.55
2022-12-08T15:46:35.936Z,52.13
2022-12-08T15:47:40.891Z,61.38
2022-12-08T15:48:43.583Z,44.75
2022-12-08T15:49:49.726Z,51.72
2022-12-08T15:50:54.882Z,78.20
2022-12-08T15:52:11.192Z,54.45
2022-12-08T15:53:16.791Z,53.33
2022-12-08T15:54:19.415Z,52.92
2022-12-08T15:55:25.254Z,66.15
2022-12-08T15:56:28.759Z,59.85
2022-12-08T15:58:30.836Z,56.45
2022-12-08T15:59:00.832Z,130.23
2022-12-08T16:00:04.826Z,68.35
2022-12-08T16:01:10.168Z,89.25
2022-12-08T16:02:17.917Z,117.82
2022-12-08T16:04:19.936Z,93.80
2022-12-08T16:07:54.503Z,42.38
2022-12-08T16:09:11.688Z,74.40
2022-12-08T16:10:20.355Z,73.70
2022-12-08T16:12:09.462Z,53.35
2022-12-08T16:13:55.399Z,56.05
2022-12-08T16:16:08.755Z,62.17
2022-12-08T16:17:14.764Z,66.40
2022-12-08T16:18:24.651Z,41.30
2022-12-08T16:19:30.236Z,53.40
2022-12-08T16:20:58.883Z,91.32
2022-12-08T16:22:44.989Z,40.92
2022-12-08T16:23:42.253Z,60.17
2022-12-08T16:24:48.194Z,48.78
2022-12-08T16:26:20.417Z,56.53
2022-12-08T16:28:54.747Z,61.50
2022-12-08T16:29:59.404Z,54.25
2022-12-08T16:31:07.630Z,46.80
2022-12-08T16:32:17.016Z,56.05